Time;durP1;ratioP1;P1;durP2;ratioP2;P2;SDS_P1;SDS_P2;PMS_P1;PMS_P2;Temp;Humidity;BMP_temperature;BMP_pressure;BME280_temperature;BME280_humidity;BME280_pressure;Samples;Min_cycle;Max_cycle;Signal;HPM_P1;HPM_P2
2023/04/15 00:00:36;;;;;;;1.75;1.30;;;;;;;9.56;61.81;100891.16;4996492;28;96833;-32
2023/04/15 00:03:01;;;;;;;3.90;1.30;;;;;;;9.60;61.56;100889.13;4996523;28;96746;-32
2023/04/15 00:05:29;;;;;;;3.45;0.93;;;;;;;9.59;61.48;100889.25;4996987;28;98006;-32
2023/04/15 00:07:54;;;;;;;1.13;0.82;;;;;;;9.59;61.79;100894.66;4997351;28;97917;-32
2023/04/15 00:10:19;;;;;;;1.45;1.13;;;;;;;9.56;61.67;100893.00;4997894;28;96570;-32
2023/04/15 00:12:45;;;;;;;1.35;1.02;;;;;;;9.59;61.73;100897.38;4997988;28;96843;-32
2023/04/15 00:15:11;;;;;;;2.25;1.17;;;;;;;9.53;62.08;100890.44;4996751;28;99264;-32
2023/04/15 00:17:37;;;;;;;4.78;1.20;;;;;;;9.53;61.67;100894.06;4997253;28;97797;-32
2023/04/15 00:20:05;;;;;;;3.13;0.90;;;;;;;9.53;62.00;100894.06;4997857;28;96452;-32
2023/04/15 00:22:31;;;;;;;1.95;1.10;;;;;;;9.53;61.61;100898.56;4996582;28;96902;-32
2023/04/15 00:24:57;;;;;;;4.38;1.60;;;;;;;9.49;61.89;100897.88;4997071;28;99449;-32
2023/04/15 00:27:22;;;;;;;1.50;0.80;;;;;;;9.46;62.06;100902.56;4997323;28;97204;-32
2023/04/15 00:29:47;;;;;;;2.38;1.25;;;;;;;9.44;61.68;100902.69;4996180;28;96826;-32
2023/04/15 00:32:13;;;;;;;2.33;1.25;;;;;;;9.44;61.67;100913.50;4997526;28;96811;-32
2023/04/15 00:34:38;;;;;;;3.58;1.30;;;;;;;9.36;61.78;100908.47;4997505;28;96742;-32
2023/04/15 00:37:04;;;;;;;1.80;1.08;;;;;;;9.36;62.45;100913.91;4997151;28;97990;-32
2023/04/15 00:39:29;;;;;;;3.10;1.27;;;;;;;9.35;61.83;100908.59;4997601;28;96483;-32
2023/04/15 00:41:56;;;;;;;3.13;1.58;;;;;;;9.31;61.96;100904.31;4997289;28;96789;-32
2023/04/15 00:44:22;;;;;;;1.17;0.80;;;;;;;9.31;61.85;100907.00;4994944;28;100503;-32
2023/04/15 00:46:49;;;;;;;2.20;0.90;;;;;;;9.28;61.94;100902.66;4996942;28;99896;-32
2023/04/15 00:49:16;;;;;;;2.47;0.82;;;;;;;9.26;62.33;100899.16;4996100;28;96590;-32
2023/04/15 00:51:41;;;;;;;1.05;0.85;;;;;;;9.27;62.76;100911.72;4995865;28;96776;-32
2023/04/15 00:54:07;;;;;;;1.98;1.08;;;;;;;9.26;62.35;100903.69;4995728;28;112609;-32
2023/04/15 00:56:37;;;;;;;0.52;0.52;;;;;;;9.24;62.71;100901.06;4996848;28;97733;-32
2023/04/15 00:59:03;;;;;;;2.78;1.20;;;;;;;9.21;62.48;100900.38;4996829;28;96606;-32
2023/04/15 01:01:30;;;;;;;2.50;1.25;;;;;;;9.17;62.72;100894.25;4995889;28;96764;-32
2023/04/15 01:03:59;;;;;;;1.48;0.95;;;;;;;9.14;62.73;100900.69;4995148;28;101327;-32
2023/04/15 01:06:26;;;;;;;2.58;1.20;;;;;;;9.12;63.11;100904.44;4995291;28;100875;-32
2023/04/15 01:08:51;;;;;;;1.85;1.15;;;;;;;9.04;62.80;100902.16;4995788;28;96628;-32
2023/04/15 01:11:17;;;;;;;2.15;1.10;;;;;;;9.03;63.53;100903.09;4997610;28;96741;-32
2023/04/15 01:13:43;;;;;;;3.15;1.20;;;;;;;8.98;62.62;100898.91;4996152;28;99573;-32
2023/04/15 01:16:09;;;;;;;1.73;1.08;;;;;;;8.97;62.94;100900.75;4996354;28;98813;-32
2023/04/15 01:18:36;;;;;;;1.92;1.20;;;;;;;8.93;63.61;100902.72;4995107;28;96655;-32
2023/04/15 01:21:03;;;;;;;1.58;0.93;;;;;;;8.89;63.41;100900.28;4995502;28;96846;-32
2023/04/15 01:23:29;;;;;;;1.77;0.98;;;;;;;8.93;63.35;100910.84;4994734;28;103751;-32
2023/04/15 01:25:56;;;;;;;2.90;1.30;;;;;;;8.89;63.55;100901.16;4994835;28;100927;-33
2023/04/15 01:28:21;;;;;;;2.92;1.42;;;;;;;8.85;63.46;100904.97;4995514;28;96552;-32
2023/04/15 01:30:47;;;;;;;1.92;1.05;;;;;;;8.82;63.10;100902.47;4996118;28;96795;-32
2023/04/15 01:33:12;;;;;;;1.17;0.93;;;;;;;8.78;63.24;100900.00;4996284;28;97884;-32
2023/04/15 01:35:38;;;;;;;2.75;1.27;;;;;;;8.79;63.52;100905.28;4996699;28;97765;-32
2023/04/15 01:38:08;;;;;;;4.68;1.50;;;;;;;8.78;63.80;100900.88;4996809;28;96463;-32
2023/04/15 01:40:34;;;;;;;1.55;1.17;;;;;;;8.72;63.88;100903.88;4996814;28;96760;-32
2023/04/15 01:43:01;;;;;;;2.85;1.20;;;;;;;8.69;63.96;100898.66;4994319;28;100806;-32
2023/04/15 01:45:26;;;;;;;1.33;1.15;;;;;;;8.68;63.66;100903.19;4995779;28;99674;-32
2023/04/15 01:47:52;;;;;;;2.85;1.13;;;;;;;8.66;64.35;100905.09;4996689;28;96581;-32
2023/04/15 01:50:17;;;;;;;1.95;1.20;;;;;;;8.62;63.89;100898.09;4996557;28;96830;-32
2023/04/15 01:52:43;;;;;;;1.98;1.45;;;;;;;8.60;64.47;100904.53;4995875;28;99551;-32
2023/04/15 01:55:10;;;;;;;1.52;1.10;;;;;;;8.60;64.41;100904.53;4997435;28;97852;-32
2023/04/15 01:57:35;;;;;;;1.83;1.33;;;;;;;8.57;64.18;100904.69;4998525;28;96554;-32
2023/04/15 02:00:02;;;;;;;3.47;1.30;;;;;;;8.59;63.74;100908.19;5000020;28;96848;-32
2023/04/15 02:02:28;;;;;;;2.65;1.55;;;;;;;8.57;63.89;100908.25;4997894;28;101293;-32
2023/04/15 02:04:53;;;;;;;2.65;1.50;;;;;;;8.48;63.90;100904.22;4999301;28;99115;-32
2023/04/15 02:07:18;;;;;;;3.28;1.33;;;;;;;8.47;64.69;100912.41;4999264;28;96568;-32
2023/04/15 02:09:45;;;;;;;2.13;1.42;;;;;;;8.46;64.49;100907.94;4999950;28;96780;-32
2023/04/15 02:12:10;;;;;;;1.48;1.17;;;;;;;8.48;64.34;100914.13;4997756;28;100687;-31
2023/04/15 02:14:36;;;;;;;2.47;1.50;;;;;;;8.46;64.60;100916.03;4999274;28;97297;-32
2023/04/15 02:17:06;;;;;;;4.88;1.35;;;;;;;8.46;64.23;100918.75;4999464;28;96571;-32
2023/04/15 02:19:32;;;;;;;3.00;1.63;;;;;;;8.42;64.38;100915.34;4999519;28;96713;-32
2023/04/15 02:21:57;;;;;;;3.08;1.52;;;;;;;8.42;64.33;100920.75;4997649;28;101005;-32
2023/04/15 02:24:22;;;;;;;3.42;2.00;;;;;;;8.41;64.43;100916.28;4999206;28;97789;-32
2023/04/15 02:26:48;;;;;;;2.47;1.42;;;;;;;8.35;64.27;100921.97;4999913;28;96490;-32
2023/04/15 02:29:13;;;;;;;5.13;2.15;;;;;;;8.33;64.09;100923.00;4998894;28;96773;-32
2023/04/15 02:31:40;;;;;;;1.67;1.30;;;;;;;8.31;65.09;100914.97;4998098;28;97347;-32
2023/04/15 02:34:06;;;;;;;2.42;1.48;;;;;;;8.27;64.94;100925.06;4997364;28;100707;-32
2023/04/15 02:36:33;;;;;;;1.52;1.17;;;;;;;8.23;64.76;100928.88;4997819;28;96551;-32
2023/04/15 02:38:59;;;;;;;2.03;1.40;;;;;;;8.20;65.31;100937.13;4997856;28;96805;-32
2023/04/15 02:41:26;;;;;;;2.33;1.60;;;;;;;8.23;65.11;100936.97;4997408;28;101294;-32
2023/04/15 02:43:52;;;;;;;3.53;1.63;;;;;;;8.24;65.07;100937.84;4998439;28;99375;-32
2023/04/15 02:46:17;;;;;;;1.83;1.38;;;;;;;8.22;64.74;100948.72;4999012;28;96826;-32
2023/04/15 02:48:42;;;;;;;2.90;1.60;;;;;;;8.23;65.13;100953.16;4999797;28;96442;-32
2023/04/15 02:51:20;;;;;;;1.88;1.35;;;;;;;8.22;65.44;100955.91;4998661;28;97320;-32
2023/04/15 02:53:49;;;;;;;4.18;1.23;;;;;;;8.21;65.45;100951.50;4998534;28;97851;-32
2023/04/15 02:56:15;;;;;;;1.38;1.17;;;;;;;8.24;64.99;100962.13;4998407;28;96695;-32
2023/04/15 02:58:44;;;;;;;1.75;1.48;;;;;;;8.19;64.84;100967.75;4997557;28;96805;-32
2023/04/15 03:01:09;;;;;;;3.17;1.20;;;;;;;8.21;64.85;100964.97;4996959;28;101320;-31
2023/04/15 03:03:34;;;;;;;2.53;1.60;;;;;;;8.17;65.37;100971.47;4998521;28;97915;-32
2023/04/15 03:06:00;;;;;;;2.70;1.50;;;;;;;8.15;65.14;100970.66;4998615;28;96687;-32
2023/04/15 03:08:25;;;;;;;2.03;1.55;;;;;;;8.07;65.30;100969.22;4998847;28;96687;-32
2023/04/15 03:10:51;;;;;;;2.00;1.40;;;;;;;8.07;65.63;100971.06;4998130;28;99708;-32
2023/04/15 03:13:17;;;;;;;4.70;1.45;;;;;;;8.07;66.15;100969.22;4997109;28;100909;-32
2023/04/15 03:15:45;;;;;;;2.03;1.15;;;;;;;8.07;66.37;100969.22;4997208;28;96640;-32
2023/04/15 03:18:11;;;;;;;3.08;1.98;;;;;;;8.05;66.39;100965.72;4997337;28;96812;-32
2023/04/15 03:20:36;;;;;;;6.45;1.90;;;;;;;8.05;66.11;100968.41;4997644;28;98069;-32
2023/04/15 03:23:02;;;;;;;3.58;1.45;;;;;;;7.97;65.62;100973.31;4998208;28;97831;-32
2023/04/15 03:25:27;;;;;;;1.52;1.27;;;;;;;7.97;65.38;100978.72;4998345;28;96455;-32
2023/04/15 03:27:52;;;;;;;5.53;1.38;;;;;;;7.99;65.87;100982.22;4998866;28;96776;-32
2023/04/15 03:30:18;;;;;;;3.78;1.70;;;;;;;7.97;65.90;100986.81;4997197;28;99299;-32
2023/04/15 03:32:43;;;;;;;4.47;1.98;;;;;;;7.98;65.52;100990.38;4998140;28;97263;-32
2023/04/15 03:35:08;;;;;;;3.53;1.30;;;;;;;7.95;66.70;100983.31;4998110;28;96475;-32
2023/04/15 03:37:34;;;;;;;3.10;1.40;;;;;;;7.95;66.05;100994.09;4998721;28;96837;-32
2023/04/15 03:39:59;;;;;;;2.63;1.67;;;;;;;7.92;65.43;100998.78;4997699;28;99293;-32
2023/04/15 03:42:25;;;;;;;4.15;2.03;;;;;;;7.91;66.13;100997.88;4997936;28;97783;-32
2023/04/15 03:44:51;;;;;;;1.98;1.63;;;;;;;7.95;66.35;101009.41;4997166;28;96575;-32
2023/04/15 03:47:16;;;;;;;2.13;1.42;;;;;;;7.95;65.97;101006.72;4998326;28;96767;-32
2023/04/15 03:49:41;;;;;;;2.15;1.60;;;;;;;7.90;66.09;101001.53;4997294;28;99471;-32
2023/04/15 03:52:07;;;;;;;1.77;1.33;;;;;;;7.91;67.16;101013.19;4997696;28;97299;-32
2023/04/15 03:54:32;;;;;;;1.92;1.40;;;;;;;7.88;66.69;101009.69;4997995;28;96467;-32
2023/04/15 03:56:57;;;;;;;1.42;1.20;;;;;;;7.91;66.31;101019.47;4998114;28;96787;-32
2023/04/15 03:59:23;;;;;;;1.83;1.15;;;;;;;7.88;66.01;101022.31;4997725;28;97312;-32
2023/04/15 04:01:48;;;;;;;1.52;1.13;;;;;;;7.88;66.54;101019.63;4997704;28;102959;-32
2023/04/15 04:04:13;;;;;;;1.25;1.00;;;;;;;7.86;66.79;101017.00;4997772;28;96559;-32
2023/04/15 04:06:39;;;;;;;3.65;1.63;;;;;;;7.91;66.64;101024.84;4998053;28;96987;-32
2023/04/15 04:09:04;;;;;;;2.30;1.30;;;;;;;7.91;66.71;101026.69;4997082;28;97857;-32
2023/04/15 04:11:30;;;;;;;2.50;1.30;;;;;;;7.88;66.87;101027.72;4997203;28;99183;-32
2023/04/15 04:13:55;;;;;;;2.85;1.52;;;;;;;7.89;66.13;101021.38;4997643;28;96549;-32
2023/04/15 04:16:21;;;;;;;1.90;1.50;;;;;;;7.90;66.83;101027.66;4997990;28;96754;-32
2023/04/15 04:18:46;;;;;;;2.40;1.55;;;;;;;7.90;66.31;101031.22;4996659;28;97455;-32
2023/04/15 04:21:11;;;;;;;1.48;1.13;;;;;;;7.88;66.39;101033.09;4996862;28;99178;-32
2023/04/15 04:23:37;;;;;;;1.77;1.15;;;;;;;7.84;66.85;101040.47;4997429;28;96569;-32
2023/04/15 04:26:02;;;;;;;2.28;1.42;;;;;;;7.84;66.61;101045.88;4998135;28;96791;-32
2023/04/15 04:28:27;;;;;;;1.75;1.30;;;;;;;7.84;67.42;101047.66;4997542;28;97317;-32
2023/04/15 04:30:53;;;;;;;2.85;1.65;;;;;;;7.82;66.37;101049.59;4996465;28;98392;-32
2023/04/15 04:33:18;;;;;;;1.70;1.27;;;;;;;7.83;67.60;101054.03;4996043;28;96657;-32
2023/04/15 04:35:43;;;;;;;1.35;1.13;;;;;;;7.77;67.48;101051.59;4997386;28;96765;-32
2023/04/15 04:38:09;;;;;;;2.22;1.52;;;;;;;7.77;67.42;101062.38;4997214;28;97049;-32
2023/04/15 04:40:35;;;;;;;2.42;1.80;;;;;;;7.78;67.61;101067.72;4997172;28;97810;-32
2023/04/15 04:43:00;;;;;;;2.22;1.20;;;;;;;7.75;66.77;101069.69;4997272;28;96468;-32
2023/04/15 04:45:26;;;;;;;2.97;1.73;;;;;;;7.66;67.27;101079.06;4997218;28;96797;-32
2023/04/15 04:47:51;;;;;;;2.55;1.52;;;;;;;7.63;67.77;101081.91;4996953;28;97804;-32
2023/04/15 04:50:16;;;;;;;2.00;1.48;;;;;;;7.58;68.23;101079.44;4997259;28;97265;-32
2023/04/15 04:52:42;;;;;;;4.22;1.65;;;;;;;7.57;68.91;101085.75;4997373;28;96541;-32
2023/04/15 04:55:07;;;;;;;2.25;1.42;;;;;;;7.56;68.02;101097.50;4997436;28;96762;-32
2023/04/15 04:57:34;;;;;;;1.45;1.23;;;;;;;7.55;68.55;101090.31;4996481;28;99348;-32
2023/04/15 05:00:00;;;;;;;2.95;1.58;;;;;;;7.57;67.89;101101.91;4995394;28;100901;-32
2023/04/15 05:02:26;;;;;;;2.60;1.23;;;;;;;7.57;67.59;101106.44;4995880;28;96646;-32
2023/04/15 05:04:53;;;;;;;4.20;1.70;;;;;;;7.57;68.69;101114.53;4997183;28;96761;-32
2023/04/15 05:07:19;;;;;;;2.67;1.50;;;;;;;7.55;68.24;101113.72;4996650;28;100006;-32
2023/04/15 05:09:45;;;;;;;2.22;1.55;;;;;;;7.55;68.44;101119.13;4995259;28;101060;-31
2023/04/15 05:12:13;;;;;;;1.60;0.93;;;;;;;7.55;68.56;101125.38;4997216;28;96733;-32
2023/04/15 05:14:42;;;;;;;2.53;1.55;;;;;;;7.56;68.60;101131.66;4995986;28;96601;-32
2023/04/15 05:17:07;;;;;;;2.10;1.30;;;;;;;7.55;68.43;101133.47;4996695;28;97357;-32
2023/04/15 05:19:33;;;;;;;1.80;1.50;;;;;;;7.55;69.35;101130.75;4996070;28;99290;-32
2023/04/15 05:21:59;;;;;;;6.93;1.67;;;;;;;7.58;68.94;101149.53;4996716;28;96689;-31
2023/04/15 05:24:24;;;;;;;2.25;1.38;;;;;;;7.55;68.65;101149.63;4995515;28;96752;-32
2023/04/15 05:26:50;;;;;;;5.13;1.55;;;;;;;7.51;68.28;101148.03;4996242;28;99879;-32
2023/04/15 05:29:15;;;;;;;2.22;1.52;;;;;;;7.51;69.19;101152.53;4996054;28;99439;-32
2023/04/15 05:31:41;;;;;;;7.18;1.77;;;;;;;7.48;68.30;101158.06;5000220;28;96598;-32
2023/04/15 05:34:07;;;;;;;1.00;0.90;;;;;;;7.52;69.37;101175.84;4998689;28;96834;-32
2023/04/15 05:36:32;;;;;;;1.67;1.20;;;;;;;7.52;69.12;101174.03;4999529;28;98822;-32
2023/04/15 05:38:57;;;;;;;3.10;2.10;;;;;;;7.52;68.83;101174.03;4999856;28;97757;-31
2023/04/15 05:41:23;;;;;;;3.55;2.05;;;;;;;7.54;68.84;101180.25;4999255;28;96691;-32
2023/04/15 05:43:48;;;;;;;2.47;1.40;;;;;;;7.57;68.54;101181.94;4998705;28;96731;-33
2023/04/15 05:46:13;;;;;;;2.40;1.48;;;;;;;7.62;69.42;101199.63;4998891;28;100011;-32
2023/04/15 05:48:39;;;;;;;3.28;2.00;;;;;;;7.61;67.90;101195.19;4999752;28;97238;-32
2023/04/15 05:51:04;;;;;;;4.40;2.10;;;;;;;7.66;68.86;101197.69;5000231;28;96610;-31
2023/04/15 05:53:30;;;;;;;1.83;1.40;;;;;;;7.66;69.37;101206.66;4999890;28;96846;-32
2023/04/15 05:55:56;;;;;;;2.85;1.60;;;;;;;7.71;69.20;101213.69;4999262;28;99350;-32
2023/04/15 05:58:21;;;;;;;1.63;1.38;;;;;;;7.75;69.26;101215.31;4999273;28;99547;-32
2023/04/15 06:00:46;;;;;;;2.30;1.42;;;;;;;7.80;68.92;101229.47;4999656;28;96521;-32
2023/04/15 06:03:12;;;;;;;3.45;1.80;;;;;;;7.80;68.31;101227.63;4999717;28;96770;-32
2023/04/15 06:05:37;;;;;;;2.28;1.70;;;;;;;7.80;67.92;101235.72;4999180;28;99043;-31
2023/04/15 06:08:03;;;;;;;2.50;1.75;;;;;;;7.83;68.14;101232.00;4999458;28;97760;-32
2023/04/15 06:10:29;;;;;;;5.32;1.88;;;;;;;7.91;67.89;101242.44;4999108;28;96614;-31
2023/04/15 06:12:55;;;;;;;4.28;2.10;;;;;;;7.96;67.78;101249.41;4998173;28;96875;-32
2023/04/15 06:15:20;;;;;;;3.78;1.52;;;;;;;8.06;67.60;101256.16;4999322;28;97918;-32
2023/04/15 06:17:45;;;;;;;4.50;1.50;;;;;;;8.14;67.70;101258.50;4998808;28;99049;-32
2023/04/15 06:20:11;;;;;;;4.57;1.92;;;;;;;8.23;67.04;101259.91;4999434;28;96524;-32
2023/04/15 06:22:38;;;;;;;3.05;1.77;;;;;;;8.33;67.73;101269.34;4999702;28;96765;-32
2023/04/15 06:25:04;;;;;;;4.15;1.90;;;;;;;8.40;67.24;101273.53;4998895;28;99595;-32
2023/04/15 06:27:29;;;;;;;2.80;1.55;;;;;;;8.47;67.20;101282.25;4997994;28;101933;-32
2023/04/15 06:29:54;;;;;;;3.45;1.88;;;;;;;8.60;66.60;101279.84;4997648;28;96736;-32
2023/04/15 06:32:20;;;;;;;3.50;1.65;;;;;;;8.65;67.04;101281.41;4999407;28;96736;-32
2023/04/15 06:34:45;;;;;;;2.83;1.60;;;;;;;8.77;66.86;101296.16;4998486;28;97885;-32
2023/04/15 06:37:14;;;;;;;3.95;2.25;;;;;;;8.86;66.82;101298.41;4998598;28;99182;-32
2023/04/15 06:39:40;;;;;;;5.88;2.30;;;;;;;8.91;66.43;101293.69;4999133;28;96549;-32
2023/04/15 06:42:05;;;;;;;2.70;1.92;;;;;;;9.01;66.76;101304.94;4998973;28;96806;-32
2023/04/15 06:44:31;;;;;;;3.45;2.17;;;;;;;9.11;66.14;101308.94;4998759;28;97319;-32
2023/04/15 06:46:56;;;;;;;2.20;1.67;;;;;;;9.19;66.24;101313.97;4998510;28;98066;-32
2023/04/15 06:49:21;;;;;;;4.70;2.20;;;;;;;9.38;66.26;101319.34;4999149;28;96510;-32
2023/04/15 06:51:47;;;;;;;6.75;2.03;;;;;;;9.50;66.06;101321.44;4999482;28;96767;-31
2023/04/15 06:54:12;;;;;;;3.47;1.77;;;;;;;9.67;66.04;101331.41;4998474;28;99238;-32
2023/04/15 06:56:37;;;;;;;3.72;2.05;;;;;;;9.84;65.26;101326.97;4998705;28;97411;-32
2023/04/15 06:59:03;;;;;;;4.32;2.13;;;;;;;9.95;65.05;101325.50;4998340;28;96597;-32
2023/04/15 07:01:28;;;;;;;4.18;1.92;;;;;;;9.98;65.27;101324.44;4998800;28;96833;-32
2023/04/15 07:03:53;;;;;;;2.05;1.70;;;;;;;10.12;65.17;101330.03;4998182;28;98076;-32
2023/04/15 07:06:19;;;;;;;3.17;2.00;;;;;;;10.28;64.44;101326.53;4998543;28;97777;-32
2023/04/15 07:08:44;;;;;;;2.22;1.52;;;;;;;10.51;63.66;101331.63;4998816;28;96527;-32
2023/04/15 07:11:09;;;;;;;7.13;2.13;;;;;;;10.65;63.92;101335.41;4998938;28;96776;-31
2023/04/15 07:13:35;;;;;;;3.13;1.77;;;;;;;10.82;63.52;101338.06;4998288;28;97385;-32
2023/04/15 07:16:00;;;;;;;5.78;2.00;;;;;;;10.92;63.18;101338.47;4998294;28;99232;-31
2023/04/15 07:18:26;;;;;;;3.05;1.88;;;;;;;11.08;63.01;101338.47;4998979;28;96621;-32
2023/04/15 07:20:51;;;;;;;3.08;1.98;;;;;;;11.21;63.07;101339.56;4998806;28;96804;-32
2023/04/15 07:23:17;;;;;;;3.97;2.00;;;;;;;11.35;63.00;101339.66;4997813;28;97717;-32
2023/04/15 07:25:42;;;;;;;3.65;2.28;;;;;;;11.44;62.11;101344.56;4997901;28;99498;-32
2023/04/15 07:28:08;;;;;;;4.05;2.40;;;;;;;11.53;62.59;101351.25;4998506;28;96507;-32
2023/04/15 07:30:33;;;;;;;4.22;2.00;;;;;;;11.67;62.01;101355.91;4997598;28;96926;-32
2023/04/15 07:32:59;;;;;;;4.95;2.25;;;;;;;11.79;62.07;101357.03;4996625;28;98895;-32
2023/04/15 07:35:25;;;;;;;2.85;1.73;;;;;;;11.98;62.03;101365.00;4998027;28;97937;-32
2023/04/15 07:37:51;;;;;;;3.15;1.98;;;;;;;12.06;61.44;101365.41;4996997;28;96492;-32
2023/04/15 07:40:17;;;;;;;2.90;1.95;;;;;;;12.22;61.23;101366.25;4998524;28;96893;-31
2023/04/15 07:42:43;;;;;;;4.43;2.65;;;;;;;12.28;61.25;101381.31;4997559;28;99876;-32
2023/04/15 07:45:09;;;;;;;3.05;1.98;;;;;;;12.34;60.97;101383.63;4997440;28;97890;-32
2023/04/15 07:47:34;;;;;;;4.00;2.15;;;;;;;12.47;60.59;101378.34;4996136;28;96609;-32
2023/04/15 07:50:01;;;;;;;4.07;1.98;;;;;;;12.68;60.42;101382.47;4997923;28;96856;-32
2023/04/15 07:52:26;;;;;;;3.13;1.90;;;;;;;12.91;60.03;101382.88;4995261;28;100954;-32
2023/04/15 07:54:52;;;;;;;3.15;1.98;;;;;;;12.98;59.76;101391.53;4997801;28;97841;-32
2023/04/15 07:57:17;;;;;;;5.85;2.47;;;;;;;13.05;59.47;101396.47;4998127;28;96484;-32
2023/04/15 07:59:42;;;;;;;3.47;2.00;;;;;;;13.09;59.00;101408.03;4997998;28;96776;-32
2023/04/15 08:02:10;;;;;;;3.63;2.15;;;;;;;13.10;59.14;101410.66;4997615;28;97961;-32
2023/04/15 08:04:35;;;;;;;3.38;2.15;;;;;;;13.15;58.90;101410.34;4996436;28;100899;-32
2023/04/15 08:07:00;;;;;;;3.88;2.38;;;;;;;13.27;59.65;101414.16;4997736;28;96462;-32
2023/04/15 08:09:26;;;;;;;5.15;2.53;;;;;;;13.34;59.03;101424.56;4998048;28;96739;-32
2023/04/15 08:11:52;;;;;;;4.13;2.35;;;;;;;13.39;58.94;101424.28;4996684;28;99442;-32
2023/04/15 08:14:17;;;;;;;4.38;2.22;;;;;;;13.52;58.90;101430.69;4995939;28;101535;-32
2023/04/15 08:16:43;;;;;;;3.80;2.38;;;;;;;13.55;57.87;101429.63;4997760;28;96644;-32
2023/04/15 08:19:08;;;;;;;3.30;2.22;;;;;;;13.67;58.35;101439.69;4997828;28;96865;-32
2023/04/15 08:21:33;;;;;;;4.50;2.58;;;;;;;13.78;58.41;101439.88;4997214;28;101846;-32
2023/04/15 08:23:59;;;;;;;3.55;1.85;;;;;;;13.99;57.87;101448.50;4997363;28;97855;-32
2023/04/15 08:26:25;;;;;;;5.07;2.47;;;;;;;14.17;57.40;101457.28;4997784;28;96738;-32
2023/04/15 08:28:50;;;;;;;3.67;2.15;;;;;;;14.20;56.27;101453.47;4997891;28;96937;-32
2023/04/15 08:31:17;;;;;;;4.50;2.25;;;;;;;14.18;56.88;101458.13;4996300;28;97913;-32
2023/04/15 08:33:43;;;;;;;2.42;1.60;;;;;;;14.36;56.72;101456.03;4995631;28;100696;-32
2023/04/15 08:36:08;;;;;;;4.43;2.20;;;;;;;14.47;56.44;101463.47;4997042;28;96556;-32
2023/04/15 08:38:33;;;;;;;8.95;2.17;;;;;;;14.57;56.53;101467.38;4997349;28;96866;-32
2023/04/15 08:41:06;;;;;;;4.78;2.67;;;;;;;14.79;56.11;101480.41;4996822;28;99284;-32
2023/04/15 08:43:40;;;;;;;4.95;2.08;;;;;;;14.91;56.17;101478.66;4996876;28;97347;-32
2023/04/15 08:46:08;;;;;;;4.63;2.63;;;;;;;15.01;55.46;101486.09;4995855;28;96955;-32
2023/04/15 08:48:37;;;;;;;4.15;2.50;;;;;;;15.07;55.09;101490.25;4995910;28;97763;-32
2023/04/15 08:51:03;;;;;;;4.13;2.40;;;;;;;15.15;55.17;101498.75;4995461;28;101409;-32
2023/04/15 08:53:29;;;;;;;4.18;2.53;;;;;;;15.04;55.08;101493.19;4995793;28;100940;-32
2023/04/15 08:55:56;;;;;;;6.30;2.75;;;;;;;14.69;55.56;101498.38;4995786;28;96698;-33
2023/04/15 08:58:23;;;;;;;4.25;2.40;;;;;;;14.68;55.13;101502.06;4995928;28;96921;-32
2023/04/15 09:00:49;;;;;;;4.75;2.20;;;;;;;14.80;54.99;101506.66;4994944;28;101136;-31
2023/04/15 09:03:16;;;;;;;4.07;2.45;;;;;;;15.02;54.53;101498.75;4996944;28;98378;-32
2023/04/15 09:05:42;;;;;;;4.28;2.25;;;;;;;15.29;54.24;101495.94;5000773;28;96654;-32
2023/04/15 09:08:07;;;;;;;4.32;2.40;;;;;;;15.29;53.64;101506.84;5000717;28;96817;-31
2023/04/15 09:10:33;;;;;;;10.30;2.80;;;;;;;15.45;53.47;101501.19;5000252;28;97958;-32
2023/04/15 09:13:00;;;;;;;3.28;1.65;;;;;;;15.49;52.98;101512.75;5000037;28;99399;-32
2023/04/15 09:15:28;;;;;;;4.63;2.58;;;;;;;15.81;52.95;101515.06;4996447;28;96640;-32
2023/04/15 09:17:54;;;;;;;4.25;2.35;;;;;;;15.84;52.26;101515.69;4996868;28;96884;-32
2023/04/15 09:20:19;;;;;;;3.65;2.15;;;;;;;15.89;51.40;101515.34;4996040;28;101028;-32
2023/04/15 09:22:47;;;;;;;5.13;1.65;;;;;;;15.80;51.09;101530.59;4996033;28;99137;-32
2023/04/15 09:25:21;;;;;;;3.50;1.92;;;;;;;15.96;51.78;101532.19;4995570;28;96892;-32
2023/04/15 09:27:48;;;;;;;2.72;1.80;;;;;;;16.22;51.39;101536.59;4997555;28;96934;-32
2023/04/15 09:30:14;;;;;;;2.40;1.60;;;;;;;16.40;49.98;101542.56;4996632;28;97339;-31
2023/04/15 09:32:58;;;;;;;2.60;1.73;;;;;;;16.55;50.01;101546.84;4995832;28;100958;-32
2023/04/15 09:35:26;;;;;;;4.15;1.80;;;;;;;16.37;48.49;101548.22;4997889;28;96643;-32
2023/04/15 09:37:52;;;;;;;4.05;1.98;;;;;;;16.38;50.04;101550.00;4997617;28;96929;-32
2023/04/15 09:40:34;;;;;;;4.85;1.88;;;;;;;16.40;49.61;101553.50;4995837;28;100797;-32
2023/04/15 09:43:00;;;;;;;4.32;1.58;;;;;;;16.47;50.10;101562.09;4997574;28;97706;-32
2023/04/15 09:45:26;;;;;;;3.35;1.48;;;;;;;16.60;48.70;101573.84;4995687;28;96677;-32
2023/04/15 09:47:52;;;;;;;2.38;1.60;;;;;;;16.71;48.59;101563.00;4997525;28;96791;-31
2023/04/15 09:50:18;;;;;;;3.85;1.75;;;;;;;16.73;47.91;101557.38;4996246;28;99371;-32
2023/04/15 09:52:44;;;;;;;3.15;1.48;;;;;;;16.89;46.32;101557.97;4995708;28;100969;-32
2023/04/15 09:55:12;;;;;;;3.88;1.80;;;;;;;16.94;47.45;101574.06;4997448;28;96567;-32
2023/04/15 09:57:40;;;;;;;4.70;1.98;;;;;;;16.90;47.29;101567.97;4995799;28;96901;-32
2023/04/15 10:00:07;;;;;;;2.80;1.65;;;;;;;16.86;47.65;101579.25;4995521;28;100895;-32
2023/04/15 10:02:34;;;;;;;4.30;2.00;;;;;;;16.95;46.98;101582.16;4996809;28;98976;-32
2023/04/15 10:05:01;;;;;;;4.03;1.73;;;;;;;17.06;46.95;101580.44;4995836;28;96721;-32
2023/04/15 10:07:27;;;;;;;2.50;1.45;;;;;;;17.13;46.72;101585.31;4996057;28;96682;-32
2023/04/15 10:09:53;;;;;;;3.95;1.50;;;;;;;17.24;46.43;101584.50;4996786;28;98158;-32
2023/04/15 10:12:19;;;;;;;1.88;1.30;;;;;;;17.48;45.97;101586.31;4995343;28;100940;-32
2023/04/15 10:14:55;;;;;;;2.38;1.33;;;;;;;17.53;46.08;101578.59;4996120;28;96500;-32
2023/04/15 10:17:21;;;;;;;3.28;1.60;;;;;;;17.72;45.44;101576.13;4995096;28;96685;-32
2023/04/15 10:19:48;;;;;;;1.60;1.17;;;;;;;17.78;45.36;101586.63;4995209;28;100530;-32
2023/04/15 10:22:14;;;;;;;1.70;1.00;;;;;;;17.81;44.61;101582.78;4995119;28;101163;-32
2023/04/15 10:24:39;;;;;;;3.50;1.10;;;;;;;17.77;44.21;101595.81;4996636;28;96570;-32
2023/04/15 10:27:05;;;;;;;2.35;1.23;;;;;;;17.65;44.59;101591.31;4996767;28;96830;-32
2023/04/15 10:29:31;;;;;;;2.33;1.40;;;;;;;17.66;43.66;101600.41;4994565;28;101275;-32
2023/04/15 10:31:59;;;;;;;6.13;4.30;;;;;;;17.52;44.35;101596.00;4995221;28;100705;-32
2023/04/15 10:34:25;;;;;;;4.03;1.35;;;;;;;17.35;44.47;101605.56;4995432;28;96556;-32
2023/04/15 10:36:56;;;;;;;3.70;1.02;;;;;;;17.44;45.22;101602.09;4995229;28;96800;-32
2023/04/15 10:39:33;;;;;;;1.75;0.88;;;;;;;17.67;43.95;101607.66;4994621;28;101003;-32
2023/04/15 10:42:06;;;;;;;1.65;0.80;;;;;;;17.74;44.50;101615.25;4996341;28;99085;-32
2023/04/15 10:44:32;;;;;;;2.28;1.25;;;;;;;17.80;43.96;101608.41;4996254;28;96680;-32
2023/04/15 10:46:57;;;;;;;2.28;1.00;;;;;;;17.83;44.52;101620.03;4996397;28;96866;-32
2023/04/15 10:49:26;;;;;;;2.38;1.02;;;;;;;18.03;44.46;101606.59;4996187;28;97488;-32
2023/04/15 10:51:56;;;;;;;4.90;1.05;;;;;;;18.06;44.21;101617.28;4996202;28;97300;-32
2023/04/15 10:54:24;;;;;;;1.70;1.08;;;;;;;18.11;44.67;101617.78;4996429;28;96526;-32
2023/04/15 10:57:07;;;;;;;1.55;0.82;;;;;;;17.95;43.41;101631.03;4996653;28;96802;-32
2023/04/15 10:59:36;;;;;;;2.20;1.05;;;;;;;17.91;44.03;101635.00;4996227;28;98058;-32
2023/04/15 11:02:03;;;;;;;2.30;0.93;;;;;;;17.92;44.15;101640.34;4994533;28;101049;-32
2023/04/15 11:04:57;;;;;;;1.27;0.90;;;;;;;17.96;43.01;101636.34;4995779;28;96574;-32
2023/04/15 11:07:52;;;;;;;2.15;1.20;;;;;;;17.80;43.64;101636.72;4995839;28;96860;-32
2023/04/15 11:10:17;;;;;;;1.25;0.93;;;;;;;17.78;44.49;101626.81;4994464;28;100997;-32
2023/04/15 11:12:43;;;;;;;1.80;0.90;;;;;;;17.75;43.97;101627.94;4995895;28;97928;-32
2023/04/15 11:15:33;;;;;;;1.52;1.05;;;;;;;17.95;45.00;101633.75;4995033;28;96607;-32
2023/04/15 11:18:08;;;;;;;2.13;0.95;;;;;;;18.18;44.60;101640.97;4994593;28;96801;-32
2023/04/15 11:20:34;;;;;;;3.15;1.30;;;;;;;18.24;44.19;101639.63;4996255;28;97027;-32
2023/04/15 11:22:59;;;;;;;1.02;0.85;;;;;;;18.43;44.52;101645.34;4994548;28;99001;-32
2023/04/15 11:25:31;;;;;;;3.03;1.05;;;;;;;18.49;43.37;101654.94;4995905;28;96670;-32